Bedford, Kentucky
Current Conditions -  °F | °C
As of 2:53 PM on Monday 24 Nov 2014 (Local Time) from KLOU Reporting Station
Overcast Overcast  
Wind Chill: 40°   Ceiling: 3500
Heat Index: 47°   Visibility: 10mi
Dew Point: 34°   Wind: 20mph
Humidity: 61%   Direction: 250°WSW
Pressure: 29.75"   Gusts: 31mph
Location:  38.59°N, 85.32°W
Report Text: KLOU 241953Z 25017G27KT 10SM OVC035 08/01 A2975 RMK AO2 PK WND 22027/1950 SLP072 T00830011
Loading
Personal Weather Stations






























Interactive Weather Map New forecast layout! Learn more

10-Day Weather Forecast

Advertisements
Track Severe Weather on mobile